sensor_id;sensor_type;location;lat;lon;timestamp;pressure;altitude;pressure_sealevel;temperature;humidity
2711;BME280;20721;47.402;8.550;2023-04-21T00:00:40;95662;;;7.64;63.23
2711;BME280;20721;47.402;8.550;2023-04-21T00:01:40;95663;;;7.65;63.12
2711;BME280;20721;47.402;8.550;2023-04-21T00:03:40;95659;;;7.64;62.98
2711;BME280;20721;47.402;8.550;2023-04-21T00:05:41;95654;;;7.65;63.14
2711;BME280;20721;47.402;8.550;2023-04-21T00:08:40;95663;;;7.66;62.98
2711;BME280;20721;47.402;8.550;2023-04-21T00:10:40;95664;;;7.68;62.92
2711;BME280;20721;47.402;8.550;2023-04-21T00:11:40;95659;;;7.70;62.87
2711;BME280;20721;47.402;8.550;2023-04-21T00:12:40;95655;;;7.69;62.92
2711;BME280;20721;47.402;8.550;2023-04-21T00:14:40;95649;;;7.67;62.83
2711;BME280;20721;47.402;8.550;2023-04-21T00:16:40;95647;;;7.65;62.77
2711;BME280;20721;47.402;8.550;2023-04-21T00:17:40;95645;;;7.64;62.75
2711;BME280;20721;47.402;8.550;2023-04-21T00:19:41;95636;;;7.63;62.81
2711;BME280;20721;47.402;8.550;2023-04-21T00:20:41;95635;;;7.62;62.75
2711;BME280;20721;47.402;8.550;2023-04-21T00:22:40;95636;;;7.61;62.88
2711;BME280;20721;47.402;8.550;2023-04-21T00:24:40;95631;;;7.60;62.91
2711;BME280;20721;47.402;8.550;2023-04-21T00:25:40;95632;;;7.59;62.96
2711;BME280;20721;47.402;8.550;2023-04-21T00:26:40;95627;;;7.58;62.92
2711;BME280;20721;47.402;8.550;2023-04-21T00:28:40;95626;;;7.59;63.03
2711;BME280;20721;47.402;8.550;2023-04-21T00:29:40;95624;;;7.60;63.12
2711;BME280;20721;47.402;8.550;2023-04-21T00:30:40;95624;;;7.62;63.16
2711;BME280;20721;47.402;8.550;2023-04-21T00:31:40;95627;;;7.63;63.11
2711;BME280;20721;47.402;8.550;2023-04-21T00:33:40;95626;;;7.64;62.97
2711;BME280;20721;47.402;8.550;2023-04-21T00:34:40;95624;;;7.62;62.92
2711;BME280;20721;47.402;8.550;2023-04-21T00:35:40;95623;;;7.60;62.86
2711;BME280;20721;47.402;8.550;2023-04-21T00:36:40;95623;;;7.59;63.02
2711;BME280;20721;47.402;8.550;2023-04-21T00:37:40;95624;;;7.58;63.19
2711;BME280;20721;47.402;8.550;2023-04-21T00:39:40;95619;;;7.60;63.13
2711;BME280;20721;47.402;8.550;2023-04-21T00:40:40;95619;;;7.62;63.12
2711;BME280;20721;47.402;8.550;2023-04-21T00:41:40;95617;;;7.64;62.99
2711;BME280;20721;47.402;8.550;2023-04-21T00:42:40;95614;;;7.63;62.80
2711;BME280;20721;47.402;8.550;2023-04-21T00:44:40;95612;;;7.58;62.98
2711;BME280;20721;47.402;8.550;2023-04-21T00:45:40;95617;;;7.55;63.11
2711;BME280;20721;47.402;8.550;2023-04-21T00:46:42;95615;;;7.53;63.24
2711;BME280;20721;47.402;8.550;2023-04-21T00:47:40;95612;;;7.52;63.24
2711;BME280;20721;47.402;8.550;2023-04-21T00:49:40;95605;;;7.51;63.23
2711;BME280;20721;47.402;8.550;2023-04-21T00:50:40;95605;;;7.52;63.28
2711;BME280;20721;47.402;8.550;2023-04-21T00:51:40;95608;;;7.53;63.23
2711;BME280;20721;47.402;8.550;2023-04-21T00:52:41;95606;;;7.52;63.23
2711;BME280;20721;47.402;8.550;2023-04-21T00:53:40;95606;;;7.51;63.14
2711;BME280;20721;47.402;8.550;2023-04-21T00:55:40;95612;;;7.50;63.23
2711;BME280;20721;47.402;8.550;2023-04-21T00:56:40;95612;;;7.51;63.31
2711;BME280;20721;47.402;8.550;2023-04-21T00:57:40;95615;;;7.52;63.33
2711;BME280;20721;47.402;8.550;2023-04-21T00:58:40;95618;;;7.53;63.14
2711;BME280;20721;47.402;8.550;2023-04-21T00:59:40;95620;;;7.55;63.14
2711;BME280;20721;47.402;8.550;2023-04-21T01:00:41;95619;;;7.54;63.07
2711;BME280;20721;47.402;8.550;2023-04-21T01:01:40;95621;;;7.53;63.06
2711;BME280;20721;47.402;8.550;2023-04-21T01:03:40;95633;;;7.54;63.10
2711;BME280;20721;47.402;8.550;2023-04-21T01:04:41;95633;;;7.53;63.01
2711;BME280;20721;47.402;8.550;2023-04-21T01:05:41;95637;;;7.54;62.88
2711;BME280;20721;47.402;8.550;2023-04-21T01:06:40;95639;;;7.53;62.74
2711;BME280;20721;47.402;8.550;2023-04-21T01:08:40;95638;;;7.50;62.43
2711;BME280;20721;47.402;8.550;2023-04-21T01:09:40;95639;;;7.46;62.58
2711;BME280;20721;47.402;8.550;2023-04-21T01:10:40;95642;;;7.44;62.74
2711;BME280;20721;47.402;8.550;2023-04-21T01:11:40;95644;;;7.42;62.80
2711;BME280;20721;47.402;8.550;2023-04-21T01:12:41;95639;;;7.40;62.86
2711;BME280;20721;47.402;8.550;2023-04-21T01:14:40;95639;;;7.37;62.79
2711;BME280;20721;47.402;8.550;2023-04-21T01:15:40;95641;;;7.36;62.84
2711;BME280;20721;47.402;8.550;2023-04-21T01:16:40;95638;;;7.34;62.88
2711;BME280;20721;47.402;8.550;2023-04-21T01:17:40;95638;;;7.32;62.86
2711;BME280;20721;47.402;8.550;2023-04-21T01:18:40;95634;;;7.29;62.86
2711;BME280;20721;47.402;8.550;2023-04-21T01:19:41;95638;;;7.28;62.91
2711;BME280;20721;47.402;8.550;2023-04-21T01:20:40;95638;;;7.27;62.87
2711;BME280;20721;47.402;8.550;2023-04-21T01:21:40;95640;;;7.25;62.96
2711;BME280;20721;47.402;8.550;2023-04-21T01:22:41;95640;;;7.22;63.08
2711;BME280;20721;47.402;8.550;2023-04-21T01:23:40;95637;;;7.20;63.16
2711;BME280;20721;47.402;8.550;2023-04-21T01:24:41;95637;;;7.19;63.11
2711;BME280;20721;47.402;8.550;2023-04-21T01:25:40;95638;;;7.18;63.20
2711;BME280;20721;47.402;8.550;2023-04-21T01:26:40;95636;;;7.19;63.16
2711;BME280;20721;47.402;8.550;2023-04-21T01:27:40;95638;;;7.18;63.04
2711;BME280;20721;47.402;8.550;2023-04-21T01:28:40;95632;;;7.15;63.19
2711;BME280;20721;47.402;8.550;2023-04-21T01:29:41;95631;;;7.12;63.22
2711;BME280;20721;47.402;8.550;2023-04-21T01:30:40;95634;;;7.06;63.56
2711;BME280;20721;47.402;8.550;2023-04-21T01:31:41;95630;;;7.04;63.66
2711;BME280;20721;47.402;8.550;2023-04-21T01:33:41;95632;;;7.05;63.74
2711;BME280;20721;47.402;8.550;2023-04-21T01:34:40;95632;;;7.02;63.78
2711;BME280;20721;47.402;8.550;2023-04-21T01:37:40;95638;;;7.05;64.07
2711;BME280;20721;47.402;8.550;2023-04-21T01:38:40;95639;;;7.09;64.05
2711;BME280;20721;47.402;8.550;2023-04-21T01:39:41;95641;;;7.11;64.05
2711;BME280;20721;47.402;8.550;2023-04-21T01:40:41;95641;;;7.13;63.88
2711;BME280;20721;47.402;8.550;2023-04-21T01:41:40;95640;;;7.12;63.87
2711;BME280;20721;47.402;8.550;2023-04-21T01:42:41;95640;;;7.14;63.87
2711;BME280;20721;47.402;8.550;2023-04-21T01:43:40;95639;;;7.16;63.88
2711;BME280;20721;47.402;8.550;2023-04-21T01:44:40;95638;;;7.15;63.92
2711;BME280;20721;47.402;8.550;2023-04-21T01:45:40;95639;;;7.18;63.91
2711;BME280;20721;47.402;8.550;2023-04-21T01:46:40;95633;;;7.19;63.69
2711;BME280;20721;47.402;8.550;2023-04-21T01:47:40;95628;;;7.17;63.87
2711;BME280;20721;47.402;8.550;2023-04-21T01:48:40;95627;;;7.18;63.96
2711;BME280;20721;47.402;8.550;2023-04-21T01:49:40;95625;;;7.20;63.83
2711;BME280;20721;47.402;8.550;2023-04-21T01:50:40;95624;;;7.21;63.69
2711;BME280;20721;47.402;8.550;2023-04-21T01:51:40;95627;;;7.22;63.72
2711;BME280;20721;47.402;8.550;2023-04-21T01:52:40;95626;;;7.20;63.79
2711;BME280;20721;47.402;8.550;2023-04-21T01:54:40;95620;;;7.19;63.96
2711;BME280;20721;47.402;8.550;2023-04-21T01:56:40;95623;;;7.14;63.95
2711;BME280;20721;47.402;8.550;2023-04-21T01:59:40;95623;;;7.17;64.06
2711;BME280;20721;47.402;8.550;2023-04-21T02:00:40;95624;;;7.20;63.93
2711;BME280;20721;47.402;8.550;2023-04-21T02:01:40;95627;;;7.23;63.85
2711;BME280;20721;47.402;8.550;2023-04-21T02:02:40;95625;;;7.22;63.79
2711;BME280;20721;47.402;8.550;2023-04-21T02:03:41;95625;;;7.23;63.68
2711;BME280;20721;47.402;8.550;2023-04-21T02:04:40;95629;;;7.21;63.71
2711;BME280;20721;47.402;8.550;2023-04-21T02:05:40;95635;;;7.20;63.69
2711;BME280;20721;47.402;8.550;2023-04-21T02:07:40;95643;;;7.18;63.54
2711;BME280;20721;47.402;8.550;2023-04-21T02:08:40;95645;;;7.14;63.45
2711;BME280;20721;47.402;8.550;2023-04-21T02:09:40;95648;;;7.11;63.51
2711;BME280;20721;47.402;8.550;2023-04-21T02:10:40;95650;;;7.06;63.67
2711;BME280;20721;47.402;8.550;2023-04-21T02:11:40;95644;;;7.01;63.82
2711;BME280;20721;47.402;8.550;2023-04-21T02:12:40;95647;;;7.00;63.85
2711;BME280;20721;47.402;8.550;2023-04-21T02:13:40;95645;;;6.98;63.96
2711;BME280;20721;47.402;8.550;2023-04-21T02:15:40;95644;;;7.00;63.98
2711;BME280;20721;47.402;8.550;2023-04-21T02:17:43;95650;;;7.02;64.15
2711;BME280;20721;47.402;8.550;2023-04-21T02:18:40;95651;;;7.05;64.21
2711;BME280;20721;47.402;8.550;2023-04-21T02:19:40;95653;;;6.97;63.99
2711;BME280;20721;47.402;8.550;2023-04-21T02:20:40;95652;;;6.89;64.27
2711;BME280;20721;47.402;8.550;2023-04-21T02:21:40;95657;;;6.84;64.39
2711;BME280;20721;47.402;8.550;2023-04-21T02:22:40;95654;;;6.81;64.48
2711;BME280;20721;47.402;8.550;2023-04-21T02:23:40;95653;;;6.74;64.70
2711;BME280;20721;47.402;8.550;2023-04-21T02:24:40;95651;;;6.71;65.03
2711;BME280;20721;47.402;8.550;2023-04-21T02:25:40;95645;;;6.67;65.04
2711;BME280;20721;47.402;8.550;2023-04-21T02:26:40;95647;;;6.66;65.25
2711;BME280;20721;47.402;8.550;2023-04-21T02:27:40;95649;;;6.70;65.12
2711;BME280;20721;47.402;8.550;2023-04-21T02:28:40;95650;;;6.69;65.09
2711;BME280;20721;47.402;8.550;2023-04-21T02:29:40;95643;;;6.64;65.12
2711;BME280;20721;47.402;8.550;2023-04-21T02:30:42;95641;;;6.68;65.15
2711;BME280;20721;47.402;8.550;2023-04-21T02:31:50;95639;;;6.72;65.05
2711;BME280;20721;47.402;8.550;2023-04-21T02:32:41;95636;;;6.75;64.79
2711;BME280;20721;47.402;8.550;2023-04-21T02:33:40;95638;;;6.76;64.66
2711;BME280;20721;47.402;8.550;2023-04-21T02:34:41;95638;;;6.81;64.78
2711;BME280;20721;47.402;8.550;2023-04-21T02:35:40;95641;;;6.85;64.69
2711;BME280;20721;47.402;8.550;2023-04-21T02:36:40;95639;;;6.89;64.35
2711;BME280;20721;47.402;8.550;2023-04-21T02:37:40;95640;;;6.90;64.19
2711;BME280;20721;47.402;8.550;2023-04-21T02:39:42;95639;;;6.91;64.24
2711;BME280;20721;47.402;8.550;2023-04-21T02:40:41;95632;;;6.92;64.39
2711;BME280;20721;47.402;8.550;2023-04-21T02:41:40;95630;;;6.93;64.31
2711;BME280;20721;47.402;8.550;2023-04-21T02:42:40;95627;;;6.95;64.20
2711;BME280;20721;47.402;8.550;2023-04-21T02:44:41;95619;;;6.99;64.20
2711;BME280;20721;47.402;8.550;2023-04-21T02:45:40;95619;;;6.91;64.08
2711;BME280;20721;47.402;8.550;2023-04-21T02:46:40;95620;;;6.87;64.25
2711;BME280;20721;47.402;8.550;2023-04-21T02:47:40;95624;;;6.88;64.45
2711;BME280;20721;47.402;8.550;2023-04-21T02:48:40;95623;;;6.90;64.33
2711;BME280;20721;47.402;8.550;2023-04-21T02:49:41;95624;;;6.92;64.26
2711;BME280;20721;47.402;8.550;2023-04-21T02:50:41;95623;;;6.94;64.09
2711;BME280;20721;47.402;8.550;2023-04-21T02:51:40;95624;;;6.92;64.08
2711;BME280;20721;47.402;8.550;2023-04-21T02:52:40;95626;;;6.88;64.02
2711;BME280;20721;47.402;8.550;2023-04-21T02:53:41;95625;;;6.85;64.00
2711;BME280;20721;47.402;8.550;2023-04-21T02:54:40;95623;;;6.82;64.25
2711;BME280;20721;47.402;8.550;2023-04-21T02:55:40;95622;;;6.83;64.45
2711;BME280;20721;47.402;8.550;2023-04-21T02:56:40;95624;;;6.85;64.33
2711;BME280;20721;47.402;8.550;2023-04-21T02:57:40;95622;;;6.86;64.22
2711;BME280;20721;47.402;8.550;2023-04-21T02:58:40;95624;;;6.88;64.29
2711;BME280;20721;47.402;8.550;2023-04-21T02:59:40;95624;;;6.89;64.35
2711;BME280;20721;47.402;8.550;2023-04-21T03:00:40;95625;;;6.92;64.20
2711;BME280;20721;47.402;8.550;2023-04-21T03:01:41;95626;;;6.95;64.17
2711;BME280;20721;47.402;8.550;2023-04-21T03:02:40;95628;;;6.98;64.17
2711;BME280;20721;47.402;8.550;2023-04-21T03:04:41;95627;;;6.99;64.15
2711;BME280;20721;47.402;8.550;2023-04-21T03:05:40;95626;;;6.90;64.13
2711;BME280;20721;47.402;8.550;2023-04-21T03:06:40;95626;;;6.81;64.49
2711;BME280;20721;47.402;8.550;2023-04-21T03:07:40;95621;;;6.78;64.64
2711;BME280;20721;47.402;8.550;2023-04-21T03:08:41;95620;;;6.80;64.64
2711;BME280;20721;47.402;8.550;2023-04-21T03:10:40;95622;;;6.75;64.73
2711;BME280;20721;47.402;8.550;2023-04-21T03:11:40;95624;;;6.74;64.88
2711;BME280;20721;47.402;8.550;2023-04-21T03:12:40;95628;;;6.77;64.82
2711;BME280;20721;47.402;8.550;2023-04-21T03:13:40;95630;;;6.79;64.80
2711;BME280;20721;47.402;8.550;2023-04-21T03:14:41;95624;;;6.78;64.68
2711;BME280;20721;47.402;8.550;2023-04-21T03:15:40;95626;;;6.80;64.73
2711;BME280;20721;47.402;8.550;2023-04-21T03:16:40;95628;;;6.78;64.71
2711;BME280;20721;47.402;8.550;2023-04-21T03:17:40;95628;;;6.80;64.85
2711;BME280;20721;47.402;8.550;2023-04-21T03:18:40;95628;;;6.82;64.85
2711;BME280;20721;47.402;8.550;2023-04-21T03:19:40;95630;;;6.83;64.82
2711;BME280;20721;47.402;8.550;2023-04-21T03:20:40;95629;;;6.85;64.74
2711;BME280;20721;47.402;8.550;2023-04-21T03:21:40;95629;;;6.87;64.65
2711;BME280;20721;47.402;8.550;2023-04-21T03:22:40;95628;;;6.86;64.54
2711;BME280;20721;47.402;8.550;2023-04-21T03:23:40;95625;;;6.84;64.68
2711;BME280;20721;47.402;8.550;2023-04-21T03:24:40;95626;;;6.86;64.74
2711;BME280;20721;47.402;8.550;2023-04-21T03:25:40;95621;;;6.87;64.76
2711;BME280;20721;47.402;8.550;2023-04-21T03:26:40;95617;;;6.93;64.73
2711;BME280;20721;47.402;8.550;2023-04-21T03:27:40;95617;;;6.96;64.55
2711;BME280;20721;47.402;8.550;2023-04-21T03:28:40;95620;;;6.94;64.43
2711;BME280;20721;47.402;8.550;2023-04-21T03:30:40;95617;;;6.95;64.48
2711;BME280;20721;47.402;8.550;2023-04-21T03:31:40;95612;;;6.96;64.58
2711;BME280;20721;47.402;8.550;2023-04-21T03:32:40;95618;;;6.99;64.63
2711;BME280;20721;47.402;8.550;2023-04-21T03:33:40;95613;;;7.04;64.51
2711;BME280;20721;47.402;8.550;2023-04-21T03:34:40;95614;;;7.06;64.49
2711;BME280;20721;47.402;8.550;2023-04-21T03:36:40;95610;;;7.10;64.38
2711;BME280;20721;47.402;8.550;2023-04-21T03:37:40;95608;;;7.12;64.26
2711;BME280;20721;47.402;8.550;2023-04-21T03:39:40;95606;;;7.13;64.20
2711;BME280;20721;47.402;8.550;2023-04-21T03:40:40;95606;;;7.04;64.19
2711;BME280;20721;47.402;8.550;2023-04-21T03:41:40;95605;;;6.91;64.60
2711;BME280;20721;47.402;8.550;2023-04-21T03:42:40;95607;;;6.85;64.88
2711;BME280;20721;47.402;8.550;2023-04-21T03:43:40;95607;;;6.83;65.08
2711;BME280;20721;47.402;8.550;2023-04-21T03:44:40;95604;;;6.84;65.17
2711;BME280;20721;47.402;8.550;2023-04-21T03:45:40;95607;;;6.87;65.14
2711;BME280;20721;47.402;8.550;2023-04-21T03:46:40;95608;;;6.90;64.98
2711;BME280;20721;47.402;8.550;2023-04-21T03:49:40;95608;;;6.92;64.88
2711;BME280;20721;47.402;8.550;2023-04-21T03:50:40;95605;;;6.95;64.82
2711;BME280;20721;47.402;8.550;2023-04-21T03:51:40;95607;;;6.97;64.80
2711;BME280;20721;47.402;8.550;2023-04-21T03:52:40;95609;;;6.98;64.80
2711;BME280;20721;47.402;8.550;2023-04-21T03:53:40;95610;;;7.03;64.88
2711;BME280;20721;47.402;8.550;2023-04-21T03:54:40;95609;;;7.05;64.58
2711;BME280;20721;47.402;8.550;2023-04-21T03:55:40;95612;;;7.06;64.52
2711;BME280;20721;47.402;8.550;2023-04-21T03:57:41;95608;;;7.05;64.37
2711;BME280;20721;47.402;8.550;2023-04-21T03:58:40;95604;;;7.02;64.46
2711;BME280;20721;47.402;8.550;2023-04-21T03:59:40;95602;;;7.01;64.69
2711;BME280;20721;47.402;8.550;2023-04-21T04:00:40;95604;;;7.05;64.67
2711;BME280;20721;47.402;8.550;2023-04-21T04:01:41;95607;;;7.09;64.66
2711;BME280;20721;47.402;8.550;2023-04-21T04:02:41;95605;;;7.14;64.55
2711;BME280;20721;47.402;8.550;2023-04-21T04:03:41;95606;;;7.19;64.44
2711;BME280;20721;47.402;8.550;2023-04-21T04:04:41;95604;;;7.21;64.34
2711;BME280;20721;47.402;8.550;2023-04-21T04:05:41;95608;;;7.25;64.11
2711;BME280;20721;47.402;8.550;2023-04-21T04:06:41;95607;;;7.30;64.07
2711;BME280;20721;47.402;8.550;2023-04-21T04:07:40;95607;;;7.34;64.01
2711;BME280;20721;47.402;8.550;2023-04-21T04:08:40;95606;;;7.38;63.72
2711;BME280;20721;47.402;8.550;2023-04-21T04:09:41;95606;;;7.41;63.62
2711;BME280;20721;47.402;8.550;2023-04-21T04:11:40;95602;;;7.43;63.20
2711;BME280;20721;47.402;8.550;2023-04-21T04:13:40;95596;;;7.44;63.28
2711;BME280;20721;47.402;8.550;2023-04-21T04:14:40;95596;;;7.45;63.13
2711;BME280;20721;47.402;8.550;2023-04-21T04:15:40;95598;;;7.43;63.02
2711;BME280;20721;47.402;8.550;2023-04-21T04:16:40;95601;;;7.44;62.91
2711;BME280;20721;47.402;8.550;2023-04-21T04:18:41;95591;;;7.42;62.77
2711;BME280;20721;47.402;8.550;2023-04-21T04:19:40;95590;;;7.37;62.82
2711;BME280;20721;47.402;8.550;2023-04-21T04:20:40;95589;;;7.29;63.08
2711;BME280;20721;47.402;8.550;2023-04-21T04:21:40;95585;;;7.25;63.28
2711;BME280;20721;47.402;8.550;2023-04-21T04:22:40;95592;;;7.21;63.31
2711;BME280;20721;47.402;8.550;2023-04-21T04:25:41;95592;;;7.23;63.67
2711;BME280;20721;47.402;8.550;2023-04-21T04:26:41;95591;;;7.25;63.65
2711;BME280;20721;47.402;8.550;2023-04-21T04:27:41;95589;;;7.29;63.62
2711;BME280;20721;47.402;8.550;2023-04-21T04:28:41;95593;;;7.33;63.58
2711;BME280;20721;47.402;8.550;2023-04-21T04:29:41;95598;;;7.34;63.58
2711;BME280;20721;47.402;8.550;2023-04-21T04:30:41;95604;;;7.35;63.37
2711;BME280;20721;47.402;8.550;2023-04-21T04:31:40;95602;;;7.34;63.51
2711;BME280;20721;47.402;8.550;2023-04-21T04:32:41;95604;;;7.24;63.37
2711;BME280;20721;47.402;8.550;2023-04-21T04:33:42;95602;;;7.21;63.64
2711;BME280;20721;47.402;8.550;2023-04-21T04:34:40;95600;;;7.20;63.65
2711;BME280;20721;47.402;8.550;2023-04-21T04:35:40;95599;;;7.18;63.80
2711;BME280;20721;47.402;8.550;2023-04-21T04:36:41;95606;;;7.19;63.81
2711;BME280;20721;47.402;8.550;2023-04-21T04:37:41;95608;;;7.18;63.75
2711;BME280;20721;47.402;8.550;2023-04-21T04:38:40;95607;;;7.19;63.85
2711;BME280;20721;47.402;8.550;2023-04-21T04:42:41;95606;;;7.22;64.00
2711;BME280;20721;47.402;8.550;2023-04-21T04:44:40;95602;;;7.25;63.88
2711;BME280;20721;47.402;8.550;2023-04-21T04:46:41;95602;;;7.22;63.93
2711;BME280;20721;47.402;8.550;2023-04-21T04:47:41;95606;;;7.19;63.94
2711;BME280;20721;47.402;8.550;2023-04-21T04:48:41;95608;;;7.16;64.17
2711;BME280;20721;47.402;8.550;2023-04-21T04:49:40;95613;;;7.17;64.23
2711;BME280;20721;47.402;8.550;2023-04-21T04:50:40;95616;;;7.21;64.23
2711;BME280;20721;47.402;8.550;2023-04-21T04:51:40;95617;;;7.25;64.05
2711;BME280;20721;47.402;8.550;2023-04-21T04:53:41;95612;;;7.23;63.99
2711;BME280;20721;47.402;8.550;2023-04-21T04:55:41;95608;;;7.26;64.24
2711;BME280;20721;47.402;8.550;2023-04-21T04:56:40;95610;;;7.30;64.06
2711;BME280;20721;47.402;8.550;2023-04-21T04:57:40;95612;;;7.26;64.12
2711;BME280;20721;47.402;8.550;2023-04-21T04:58:41;95611;;;7.25;64.25
2711;BME280;20721;47.402;8.550;2023-04-21T04:59:41;95611;;;7.22;64.10
2711;BME280;20721;47.402;8.550;2023-04-21T05:00:40;95614;;;7.09;64.61
2711;BME280;20721;47.402;8.550;2023-04-21T05:01:41;95613;;;7.02;64.81
2711;BME280;20721;47.402;8.550;2023-04-21T05:02:41;95614;;;7.03;65.08
2711;BME280;20721;47.402;8.550;2023-04-21T05:03:41;95613;;;7.11;64.99
2711;BME280;20721;47.402;8.550;2023-04-21T05:04:41;95614;;;7.19;64.71
2711;BME280;20721;47.402;8.550;2023-04-21T05:05:41;95616;;;7.21;64.44
2711;BME280;20721;47.402;8.550;2023-04-21T05:06:41;95613;;;7.19;64.53
2711;BME280;20721;47.402;8.550;2023-04-21T05:07:41;95612;;;7.22;64.48
2711;BME280;20721;47.402;8.550;2023-04-21T05:08:41;95619;;;7.26;64.39
2711;BME280;20721;47.402;8.550;2023-04-21T05:09:41;95614;;;7.28;64.44
2711;BME280;20721;47.402;8.550;2023-04-21T05:10:41;95614;;;7.33;64.33
2711;BME280;20721;47.402;8.550;2023-04-21T05:11:41;95615;;;7.36;64.26
2711;BME280;20721;47.402;8.550;2023-04-21T05:12:41;95615;;;7.32;64.20
2711;BME280;20721;47.402;8.550;2023-04-21T05:13:41;95624;;;7.30;64.21
2711;BME280;20721;47.402;8.550;2023-04-21T05:14:41;95621;;;7.26;64.39
2711;BME280;20721;47.402;8.550;2023-04-21T05:15:41;95621;;;7.25;64.59
2711;BME280;20721;47.402;8.550;2023-04-21T05:16:42;95624;;;7.26;64.46
2711;BME280;20721;47.402;8.550;2023-04-21T05:17:41;95627;;;7.27;64.38
2711;BME280;20721;47.402;8.550;2023-04-21T05:18:41;95627;;;7.31;64.41
2711;BME280;20721;47.402;8.550;2023-04-21T05:19:41;95629;;;7.35;64.37
2711;BME280;20721;47.402;8.550;2023-04-21T05:20:41;95622;;;7.40;64.36
2711;BME280;20721;47.402;8.550;2023-04-21T05:21:41;95624;;;7.43;64.24
2711;BME280;20721;47.402;8.550;2023-04-21T05:22:41;95625;;;7.50;64.11
2711;BME280;20721;47.402;8.550;2023-04-21T05:23:41;95628;;;7.53;64.00
2711;BME280;20721;47.402;8.550;2023-04-21T05:24:41;95626;;;7.58;64.00
2711;BME280;20721;47.402;8.550;2023-04-21T05:25:41;95630;;;7.62;63.91
2711;BME280;20721;47.402;8.550;2023-04-21T05:26:41;95628;;;7.67;63.94
2711;BME280;20721;47.402;8.550;2023-04-21T05:27:41;95634;;;7.70;63.80
2711;BME280;20721;47.402;8.550;2023-04-21T05:28:41;95635;;;7.72;63.76
2711;BME280;20721;47.402;8.550;2023-04-21T05:29:41;95638;;;7.78;63.51
2711;BME280;20721;47.402;8.550;2023-04-21T05:30:41;95640;;;7.79;63.46
2711;BME280;20721;47.402;8.550;2023-04-21T05:31:41;95647;;;7.83;63.41
2711;BME280;20721;47.402;8.550;2023-04-21T05:33:41;95650;;;7.84;63.37
2711;BME280;20721;47.402;8.550;2023-04-21T05:35:41;95654;;;7.76;62.84
2711;BME280;20721;47.402;8.550;2023-04-21T05:36:41;95652;;;7.59;63.12
2711;BME280;20721;47.402;8.550;2023-04-21T05:37:41;95651;;;7.40;63.78
2711;BME280;20721;47.402;8.550;2023-04-21T05:38:41;95651;;;7.30;64.42
2711;BME280;20721;47.402;8.550;2023-04-21T05:39:41;95649;;;7.28;64.63
2711;BME280;20721;47.402;8.550;2023-04-21T05:40:41;95648;;;7.27;64.70
2711;BME280;20721;47.402;8.550;2023-04-21T05:42:41;95649;;;7.24;65.00
2711;BME280;20721;47.402;8.550;2023-04-21T05:43:41;95647;;;7.25;65.04
2711;BME280;20721;47.402;8.550;2023-04-21T05:44:41;95648;;;7.28;64.98
2711;BME280;20721;47.402;8.550;2023-04-21T05:45:41;95653;;;7.35;64.82
2711;BME280;20721;47.402;8.550;2023-04-21T05:46:41;95654;;;7.41;64.66
2711;BME280;20721;47.402;8.550;2023-04-21T05:47:41;95654;;;7.46;64.47
2711;BME280;20721;47.402;8.550;2023-04-21T05:48:41;95646;;;7.49;64.51
2711;BME280;20721;47.402;8.550;2023-04-21T05:49:43;95646;;;7.54;64.57
2711;BME280;20721;47.402;8.550;2023-04-21T05:50:41;95648;;;7.61;64.46
2711;BME280;20721;47.402;8.550;2023-04-21T05:51:41;95647;;;7.65;64.27
2711;BME280;20721;47.402;8.550;2023-04-21T05:52:41;95643;;;7.69;64.26
2711;BME280;20721;47.402;8.550;2023-04-21T05:53:42;95641;;;7.73;64.17
2711;BME280;20721;47.402;8.550;2023-04-21T05:54:41;95639;;;7.80;64.07
2711;BME280;20721;47.402;8.550;2023-04-21T05:55:41;95637;;;7.84;63.77
2711;BME280;20721;47.402;8.550;2023-04-21T05:56:41;95638;;;7.88;63.80
2711;BME280;20721;47.402;8.550;2023-04-21T05:57:41;95640;;;7.93;63.65
2711;BME280;20721;47.402;8.550;2023-04-21T05:58:41;95639;;;7.95;63.25
2711;BME280;20721;47.402;8.550;2023-04-21T05:59:41;95637;;;7.96;62.93
2711;BME280;20721;47.402;8.550;2023-04-21T06:00:41;95636;;;7.97;62.82
2711;BME280;20721;47.402;8.550;2023-04-21T06:02:41;95636;;;7.98;62.97
2711;BME280;20721;47.402;8.550;2023-04-21T06:03:41;95635;;;7.97;62.76
2711;BME280;20721;47.402;8.550;2023-04-21T06:04:41;95633;;;7.74;62.67
2711;BME280;20721;47.402;8.550;2023-04-21T06:05:41;95639;;;7.50;63.38
2711;BME280;20721;47.402;8.550;2023-04-21T06:06:41;95643;;;7.35;64.13
2711;BME280;20721;47.402;8.550;2023-04-21T06:07:41;95641;;;7.21;64.40
2711;BME280;20721;47.402;8.550;2023-04-21T06:08:41;95642;;;7.20;64.66
2711;BME280;20721;47.402;8.550;2023-04-21T06:09:41;95640;;;7.25;64.85
2711;BME280;20721;47.402;8.550;2023-04-21T06:10:41;95646;;;7.34;64.80
2711;BME280;20721;47.402;8.550;2023-04-21T06:11:41;95646;;;7.41;64.71
2711;BME280;20721;47.402;8.550;2023-04-21T06:12:41;95650;;;7.43;64.39
2711;BME280;20721;47.402;8.550;2023-04-21T06:13:43;95649;;;7.44;64.64
2711;BME280;20721;47.402;8.550;2023-04-21T06:14:41;95646;;;7.45;64.34
2711;BME280;20721;47.402;8.550;2023-04-21T06:15:41;95645;;;7.50;64.27
2711;BME280;20721;47.402;8.550;2023-04-21T06:16:41;95643;;;7.56;63.93
2711;BME280;20721;47.402;8.550;2023-04-21T06:17:41;95640;;;7.65;63.90
2711;BME280;20721;47.402;8.550;2023-04-21T06:18:41;95636;;;7.74;63.68
2711;BME280;20721;47.402;8.550;2023-04-21T06:19:42;95638;;;7.83;63.50
2711;BME280;20721;47.402;8.550;2023-04-21T06:20:41;95639;;;7.87;63.27
2711;BME280;20721;47.402;8.550;2023-04-21T06:21:41;95639;;;7.89;62.93
2711;BME280;20721;47.402;8.550;2023-04-21T06:22:41;95644;;;7.86;62.65
2711;BME280;20721;47.402;8.550;2023-04-21T06:23:41;95641;;;7.90;62.72
2711;BME280;20721;47.402;8.550;2023-04-21T06:25:41;95641;;;7.89;62.45
2711;BME280;20721;47.402;8.550;2023-04-21T06:26:41;95640;;;7.90;62.70
2711;BME280;20721;47.402;8.550;2023-04-21T06:27:41;95641;;;7.93;62.92
2711;BME280;20721;47.402;8.550;2023-04-21T06:28:41;95640;;;7.94;62.95
2711;BME280;20721;47.402;8.550;2023-04-21T06:29:41;95637;;;7.95;63.00
2711;BME280;20721;47.402;8.550;2023-04-21T06:30:41;95638;;;7.99;62.98
2711;BME280;20721;47.402;8.550;2023-04-21T06:31:41;95640;;;8.02;63.09
2711;BME280;20721;47.402;8.550;2023-04-21T06:32:41;95640;;;8.05;62.82
2711;BME280;20721;47.402;8.550;2023-04-21T06:33:41;95638;;;8.06;62.47
2711;BME280;20721;47.402;8.550;2023-04-21T06:34:41;95638;;;8.07;62.21
2711;BME280;20721;47.402;8.550;2023-04-21T06:35:41;95637;;;8.09;61.91
2711;BME280;20721;47.402;8.550;2023-04-21T06:36:41;95637;;;8.10;61.72